createdAt,value
2022-09-04T00:00:33.240Z,100635.47
2022-09-04T00:03:15.592Z,100634.84
2022-09-04T00:05:42.207Z,100641.91
2022-09-04T00:08:20.972Z,100639.78
2022-09-04T00:10:55.872Z,100635.75
2022-09-04T00:13:24.011Z,100640.38
2022-09-04T00:16:05.660Z,100645.00
2022-09-04T00:18:38.137Z,100648.84
2022-09-04T00:21:10.861Z,100651.56
2022-09-04T00:23:41.827Z,100658.09
2022-09-04T00:26:20.866Z,100652.16
2022-09-04T00:28:49.596Z,100648.31
2022-09-04T00:31:29.076Z,100653.75
2022-09-04T00:33:58.658Z,100652.28
2022-09-04T00:36:27.701Z,100653.41
2022-09-04T00:38:57.647Z,100652.91
2022-09-04T00:41:28.343Z,100652.91
2022-09-04T00:44:28.353Z,100655.63
2022-09-04T00:47:13.660Z,100660.56
2022-09-04T00:49:46.921Z,100659.09
2022-09-04T00:52:36.405Z,100659.69
2022-09-04T00:55:03.577Z,100658.09
2022-09-04T00:57:48.932Z,100661.59
2022-09-04T01:00:17.377Z,100668.47
2022-09-04T01:02:43.899Z,100670.69
2022-09-04T01:05:20.390Z,100671.78
2022-09-04T01:08:00.505Z,100679.94
2022-09-04T01:10:39.008Z,100676.22
2022-09-04T01:13:16.789Z,100679.06
2022-09-04T01:15:55.557Z,100681.78
2022-09-04T01:18:29.708Z,100671.91
2022-09-04T01:21:10.852Z,100687.59
2022-09-04T01:23:57.651Z,100685.59
2022-09-04T01:26:33.453Z,100685.09
2022-09-04T01:29:15.243Z,100688.66
2022-09-04T01:31:47.913Z,100683.63
2022-09-04T01:34:14.408Z,100683.63
2022-09-04T01:36:46.880Z,100690.66
2022-09-04T01:39:13.629Z,100687.44
2022-09-04T01:41:47.221Z,100697.22
2022-09-04T01:44:13.979Z,100702.16
2022-09-04T01:46:40.499Z,100702.44
2022-09-04T01:49:25.788Z,100703.03
2022-09-04T01:52:10.579Z,100699.53
2022-09-04T01:54:50.773Z,100697.44
2022-09-04T01:57:20.425Z,100699.03
2022-09-04T01:59:53.582Z,100699.03
2022-09-04T02:02:23.287Z,100695.53
2022-09-04T02:04:52.850Z,100701.75
2022-09-04T02:07:19.330Z,100707.19
2022-09-04T02:09:56.661Z,100701.75
2022-09-04T02:12:23.121Z,100700.97
2022-09-04T02:15:09.926Z,100702.88
2022-09-04T02:17:54.981Z,100701.25
2022-09-04T02:20:24.242Z,100705.09
2022-09-04T02:22:50.722Z,100702.19
2022-09-04T02:25:17.200Z,100701.38
2022-09-04T02:27:43.633Z,100697.34
2022-09-04T02:30:12.113Z,100694.13
2022-09-04T02:32:44.610Z,100695.53
2022-09-04T02:35:18.118Z,100702.59
2022-09-04T02:38:13.911Z,100697.16
2022-09-04T02:40:50.742Z,100697.75
2022-09-04T02:43:23.539Z,100699.38
2022-09-04T02:46:00.062Z,100708.03
2022-09-04T02:48:46.795Z,100709.13
2022-09-04T02:51:13.845Z,100710.03
2022-09-04T02:54:12.954Z,100707.25
2022-09-04T02:56:58.649Z,100716.06
2022-09-04T02:59:44.105Z,100719.97
2022-09-04T03:02:33.993Z,100725.13
2022-09-04T03:05:08.145Z,100720.47
2022-09-04T03:07:48.565Z,100727.53
2022-09-04T03:10:15.083Z,100721.09
2022-09-04T03:12:47.992Z,100725.72
2022-09-04T03:15:14.570Z,100736.75
2022-09-04T03:17:53.494Z,100732.75
2022-09-04T03:20:25.315Z,100739.56
2022-09-04T03:22:55.687Z,100737.28
2022-09-04T03:25:33.757Z,100740.19
2022-09-04T03:28:00.666Z,100745.41
2022-09-04T03:30:28.069Z,100745.47
2022-09-04T03:33:05.166Z,100749.81
2022-09-04T03:35:37.718Z,100752.81
2022-09-04T03:38:28.586Z,100746.22
2022-09-04T03:41:03.080Z,100754.91
2022-09-04T03:43:47.502Z,100755.81
2022-09-04T03:46:20.189Z,100754.31
2022-09-04T03:48:55.283Z,100756.78
2022-09-04T03:51:25.547Z,100751.38
2022-09-04T03:54:12.253Z,100750.16
2022-09-04T03:56:54.199Z,100756.97
2022-09-04T03:59:20.684Z,100749.66
2022-09-04T04:01:53.254Z,100751.47
2022-09-04T04:04:38.462Z,100757.47
2022-09-04T04:07:07.800Z,100759.78
2022-09-04T04:09:43.544Z,100758.53
2022-09-04T04:12:27.420Z,100761.53
2022-09-04T04:15:03.333Z,100770.00
2022-09-04T04:17:46.188Z,100771.91
2022-09-04T04:20:12.670Z,100770.03
2022-09-04T04:22:39.148Z,100763.78
2022-09-04T04:25:12.679Z,100780.56
2022-09-04T04:27:59.095Z,100780.06
2022-09-04T04:30:30.696Z,100785.47
2022-09-04T04:33:20.804Z,100777.44
2022-09-04T04:36:05.687Z,100793.19
2022-09-04T04:38:41.635Z,100788.19
2022-09-04T04:41:08.626Z,100795.22
2022-09-04T04:43:53.895Z,100798.16
2022-09-04T04:46:20.363Z,100800.94
2022-09-04T04:49:05.586Z,100799.41
2022-09-04T04:51:41.265Z,100805.19
2022-09-04T04:54:13.878Z,100810.91
2022-09-04T04:56:51.083Z,100818.22
2022-09-04T04:59:23.757Z,100818.28
2022-09-04T05:01:56.336Z,100820.94
2022-09-04T05:04:36.076Z,100812.22
2022-09-04T05:07:21.730Z,100829.88
2022-09-04T05:10:06.995Z,100830.97
2022-09-04T05:12:49.968Z,100847.72
2022-09-04T05:15:28.721Z,100843.03
2022-09-04T05:18:01.818Z,100840.72
2022-09-04T05:20:43.565Z,100841.16
2022-09-04T05:23:28.736Z,100839.31
2022-09-04T05:26:08.053Z,100851.56
2022-09-04T05:28:34.536Z,100857.72
2022-09-04T05:31:24.424Z,100860.06
2022-09-04T05:33:59.265Z,100861.50
2022-09-04T05:36:28.825Z,100867.06
2022-09-04T05:39:06.352Z,100868.91
2022-09-04T05:41:33.044Z,100877.53
2022-09-04T05:44:02.575Z,100880.84
2022-09-04T05:46:44.156Z,100882.53
2022-09-04T05:49:13.530Z,100878.72
2022-09-04T05:51:48.930Z,100884.06
2022-09-04T05:54:18.443Z,100888.97
2022-09-04T05:56:48.132Z,100893.50
2022-09-04T05:59:21.691Z,100896.53
2022-09-04T06:01:57.602Z,100895.72
2022-09-04T06:04:36.414Z,100893.50
2022-09-04T06:07:09.127Z,100903.34
2022-09-04T06:09:51.084Z,100900.94
2022-09-04T06:12:35.465Z,100910.94
2022-09-04T06:15:11.041Z,100912.50
2022-09-04T06:17:40.285Z,100908.97
2022-09-04T06:20:25.640Z,100922.22
2022-09-04T06:23:03.107Z,100918.22
2022-09-04T06:25:37.730Z,100918.44
2022-09-04T06:28:22.874Z,100910.19
2022-09-04T06:30:52.230Z,100915.91
2022-09-04T06:33:18.904Z,100930.75
2022-09-04T06:35:48.506Z,100929.72
2022-09-04T06:38:44.187Z,100931.06
2022-09-04T06:41:20.575Z,100931.09
2022-09-04T06:43:50.253Z,100932.53
2022-09-04T06:46:24.038Z,100933.22
2022-09-04T06:49:13.781Z,100928.75
2022-09-04T06:51:40.304Z,100932.47
2022-09-04T06:54:24.287Z,100949.25
2022-09-04T06:57:25.330Z,100953.97
2022-09-04T06:59:51.923Z,100954.56
2022-09-04T07:02:22.026Z,100958.00
2022-09-04T07:04:48.573Z,100957.50
2022-09-04T07:07:18.161Z,100957.81
2022-09-04T07:09:49.554Z,100959.97
2022-09-04T07:12:36.391Z,100959.16
2022-09-04T07:15:12.420Z,100961.03
2022-09-04T07:17:56.483Z,100963.75
2022-09-04T07:20:25.839Z,100965.69
2022-09-04T07:22:52.321Z,100962.72
2022-09-04T07:25:33.067Z,100963.16
2022-09-04T07:28:25.968Z,100968.78
2022-09-04T07:30:57.131Z,100972.25
2022-09-04T07:33:35.748Z,100970.63
2022-09-04T07:36:14.400Z,100978.09
2022-09-04T07:38:50.667Z,100979.19
2022-09-04T07:41:37.757Z,100990.75
2022-09-04T07:44:13.853Z,100989.38
2022-09-04T07:47:00.135Z,100995.81
2022-09-04T07:49:26.615Z,100991.75
2022-09-04T07:51:56.361Z,100992.94
2022-09-04T07:54:41.913Z,100997.34
2022-09-04T07:57:14.599Z,101000.31
2022-09-04T07:59:49.580Z,101002.72
2022-09-04T08:02:34.834Z,101009.47
2022-09-04T08:05:08.752Z,100999.09
2022-09-04T08:07:38.283Z,101008.03
2022-09-04T08:10:14.337Z,101014.09
2022-09-04T08:12:56.312Z,101010.56
2022-09-04T08:15:30.197Z,101013.97
2022-09-04T08:18:11.821Z,101023.63
2022-09-04T08:20:49.279Z,101025.63
2022-09-04T08:23:24.539Z,101022.16
2022-09-04T08:25:54.578Z,101036.72
2022-09-04T08:28:33.406Z,101036.13
2022-09-04T08:31:08.082Z,101038.53
2022-09-04T08:33:51.186Z,101046.28
2022-09-04T08:36:25.373Z,101048.25
2022-09-04T08:39:10.913Z,101048.78
2022-09-04T08:41:49.727Z,101038.09
2022-09-04T08:44:37.904Z,101048.34
2022-09-04T08:47:17.752Z,101049.69
2022-09-04T08:49:52.065Z,101049.78
2022-09-04T08:52:21.506Z,101063.50
2022-09-04T08:55:00.731Z,101060.41
2022-09-04T08:57:50.078Z,101064.78
2022-09-04T09:00:20.500Z,101053.25
2022-09-04T09:03:05.905Z,101051.81
2022-09-04T09:05:53.526Z,101050.13
2022-09-04T09:08:38.910Z,101037.94
2022-09-04T09:11:24.203Z,101025.94
2022-09-04T09:13:53.752Z,101021.34
2022-09-04T09:16:21.541Z,101020.50
2022-09-04T09:19:06.661Z,101015.44
2022-09-04T09:22:05.751Z,101016.06
2022-09-04T09:24:51.478Z,101020.53
2022-09-04T09:27:33.225Z,101012.63
2022-09-04T09:30:02.834Z,101005.69
2022-09-04T09:32:29.309Z,101007.94
2022-09-04T09:35:08.688Z,101002.81
2022-09-04T09:37:45.056Z,101001.00
2022-09-04T09:40:11.513Z,100997.97
2022-09-04T09:43:16.666Z,101002.16
2022-09-04T09:46:01.726Z,100996.38
2022-09-04T09:48:30.962Z,101000.78
2022-09-04T09:51:15.953Z,100988.53
2022-09-04T09:54:01.417Z,100987.22
2022-09-04T09:56:30.758Z,100983.38
2022-09-04T09:59:06.482Z,100978.34
2022-09-04T10:02:07.850Z,100982.72
2022-09-04T10:04:53.199Z,100973.69
2022-09-04T10:07:29.797Z,100971.84
2022-09-04T10:10:24.218Z,100962.84
2022-09-04T10:12:50.752Z,100962.97
2022-09-04T10:15:30.330Z,100963.06
2022-09-04T10:18:06.041Z,100966.31
2022-09-04T10:20:40.760Z,100958.28
2022-09-04T10:23:30.860Z,100953.44
2022-09-04T10:26:15.870Z,100952.41
2022-09-04T10:29:04.160Z,100950.50
2022-09-04T10:31:45.912Z,100958.97
2022-09-04T10:34:20.265Z,100955.84
2022-09-04T10:37:13.220Z,100947.66
2022-09-04T10:40:17.628Z,100946.59
2022-09-04T10:42:57.709Z,100954.50
2022-09-04T10:45:24.395Z,100951.53
2022-09-04T10:48:06.318Z,100954.38
2022-09-04T10:50:54.927Z,100947.38
2022-09-04T10:53:31.505Z,100947.00
2022-09-04T10:56:22.067Z,100939.94
2022-09-04T10:58:48.607Z,100944.59
2022-09-04T11:01:35.650Z,100940.47
2022-09-04T11:04:19.738Z,100932.19
2022-09-04T11:06:47.078Z,100939.63
2022-09-04T11:09:13.751Z,100932.19
2022-09-04T11:11:43.443Z,100939.28
2022-09-04T11:14:23.578Z,100939.88
2022-09-04T11:16:59.971Z,100936.56
2022-09-04T11:19:45.351Z,100924.22
2022-09-04T11:22:34.457Z,100927.84
2022-09-04T11:25:19.791Z,100927.97
2022-09-04T11:27:59.273Z,100927.97
2022-09-04T11:30:36.421Z,100922.84
2022-09-04T11:33:04.211Z,100924.41
2022-09-04T11:35:49.777Z,100925.28
2022-09-04T11:38:22.590Z,100915.88
2022-09-04T11:41:07.970Z,100917.28
2022-09-04T11:43:36.802Z,100919.38
2022-09-04T11:46:17.959Z,100913.34
2022-09-04T11:48:56.371Z,100917.31
2022-09-04T11:51:26.053Z,100913.97
2022-09-04T11:54:05.038Z,100918.25
2022-09-04T11:56:50.557Z,100923.97
2022-09-04T11:59:17.086Z,100922.91
2022-09-04T12:01:52.602Z,100917.66
2022-09-04T12:04:34.402Z,100924.84
2022-09-04T12:07:12.412Z,100921.50
2022-09-04T12:09:59.190Z,100920.88
2022-09-04T12:12:45.393Z,100913.13
2022-09-04T12:15:30.599Z,100916.72
2022-09-04T12:18:04.097Z,100913.34
2022-09-04T12:20:41.143Z,100914.94
2022-09-04T12:23:26.574Z,100918.94
2022-09-04T12:26:01.354Z,100924.88
2022-09-04T12:28:27.803Z,100923.41
2022-09-04T12:30:54.298Z,100919.09
2022-09-04T12:33:26.802Z,100927.41
2022-09-04T12:35:56.240Z,100926.19
2022-09-04T12:38:35.988Z,100930.94
2022-09-04T12:41:05.556Z,100933.25
2022-09-04T12:43:45.305Z,100924.53
2022-09-04T12:46:21.643Z,100932.47
2022-09-04T12:49:08.391Z,100931.28
2022-09-04T12:52:01.186Z,100936.47
2022-09-04T12:54:27.774Z,100932.44
2022-09-04T12:57:17.391Z,100933.19
2022-09-04T12:59:46.938Z,100940.31
2022-09-04T13:02:24.215Z,100940.78
2022-09-04T13:04:57.904Z,100947.66
2022-09-04T13:07:33.597Z,100954.31
2022-09-04T13:10:09.008Z,100950.50
2022-09-04T13:12:41.739Z,100947.09
2022-09-04T13:15:11.177Z,100950.97
2022-09-04T13:17:58.244Z,100951.50
2022-09-04T13:20:39.042Z,100957.94
2022-09-04T13:23:05.526Z,100950.00
2022-09-04T13:25:52.466Z,100955.53
2022-09-04T13:28:28.300Z,100954.75
2022-09-04T13:31:00.408Z,100954.25
2022-09-04T13:33:39.707Z,100961.06
2022-09-04T13:36:16.488Z,100954.63
2022-09-04T13:38:42.982Z,100955.41
2022-09-04T13:41:09.528Z,100947.50
2022-09-04T13:43:43.983Z,100955.34
2022-09-04T13:46:14.609Z,100949.16
2022-09-04T13:49:14.846Z,100954.09
2022-09-04T13:52:03.165Z,100945.69
2022-09-04T13:54:38.909Z,100944.06
2022-09-04T13:57:13.787Z,100943.25
2022-09-04T13:59:41.974Z,100936.66
2022-09-04T14:02:10.225Z,100939.69
2022-09-04T14:04:48.097Z,100939.69
2022-09-04T14:07:21.101Z,100932.47
2022-09-04T14:09:49.513Z,100932.91
2022-09-04T14:12:35.190Z,100925.44
2022-09-04T14:15:08.019Z,100926.91
2022-09-04T14:17:55.217Z,100934.28
2022-09-04T14:20:24.550Z,100920.28
2022-09-04T14:23:03.490Z,100925.66
2022-09-04T14:25:52.922Z,100934.31
2022-09-04T14:28:31.950Z,100934.34
2022-09-04T14:31:10.325Z,100924.41
2022-09-04T14:33:55.460Z,100925.03
2022-09-04T14:36:28.249Z,100936.63
2022-09-04T14:39:15.102Z,100930.50
2022-09-04T14:41:52.098Z,100932.03
2022-09-04T14:44:24.958Z,100933.75
2022-09-04T14:46:59.432Z,100934.66
2022-09-04T14:49:31.907Z,100939.38
2022-09-04T14:52:10.961Z,100931.66
2022-09-04T14:54:43.855Z,100932.13
2022-09-04T14:57:17.726Z,100937.84
2022-09-04T15:00:10.187Z,100938.63
2022-09-04T15:02:42.353Z,100935.41
2022-09-04T15:05:18.188Z,100934.97
2022-09-04T15:07:46.592Z,100932.41
2022-09-04T15:10:35.325Z,100938.06
2022-09-04T15:13:05.689Z,100931.25
2022-09-04T15:15:35.497Z,100930.44
2022-09-04T15:18:20.213Z,100921.38
2022-09-04T15:21:05.114Z,100918.31
2022-09-04T15:23:35.511Z,100921.50
2022-09-04T15:26:05.075Z,100913.88
2022-09-04T15:28:40.624Z,100923.41
2022-09-04T15:31:17.086Z,100920.22
2022-09-04T15:33:45.785Z,100928.66
2022-09-04T15:36:18.182Z,100929.34
2022-09-04T15:38:52.483Z,100930.16
2022-09-04T15:41:26.884Z,100916.78
2022-09-04T15:44:12.301Z,100917.22
2022-09-04T15:46:46.518Z,100921.59
2022-09-04T15:49:32.002Z,100919.47
2022-09-04T15:52:07.407Z,100924.84
2022-09-04T15:54:37.002Z,100914.44
2022-09-04T15:57:16.396Z,100913.75
2022-09-04T16:00:03.126Z,100915.38
2022-09-04T16:02:54.762Z,100912.91
2022-09-04T16:05:24.023Z,100909.50
2022-09-04T16:08:03.603Z,100920.75
2022-09-04T16:10:42.849Z,100914.66
2022-09-04T16:13:29.709Z,100911.53
2022-09-04T16:16:04.426Z,100910.97
2022-09-04T16:18:37.649Z,100910.53
2022-09-04T16:21:10.953Z,100912.47
2022-09-04T16:23:38.791Z,100915.28
2022-09-04T16:26:15.140Z,100912.25
2022-09-04T16:28:47.355Z,100911.38
2022-09-04T16:31:15.705Z,100905.75
2022-09-04T16:33:48.489Z,100902.69
2022-09-04T16:36:21.292Z,100909.00
2022-09-04T16:38:52.358Z,100912.66
2022-09-04T16:41:25.644Z,100907.72
2022-09-04T16:44:07.589Z,100903.28
2022-09-04T16:46:37.493Z,100905.31
2022-09-04T16:49:07.313Z,100902.13
2022-09-04T16:51:40.362Z,100897.25
2022-09-04T16:54:08.497Z,100892.41
2022-09-04T16:56:40.556Z,100895.41
2022-09-04T16:59:10.278Z,100889.47
2022-09-04T17:01:43.876Z,100887.53
2022-09-04T17:04:14.533Z,100896.84
2022-09-04T17:06:56.318Z,100891.47
2022-09-04T17:09:38.889Z,100899.75
2022-09-04T17:12:24.196Z,100893.38
2022-09-04T17:14:56.635Z,100893.81
2022-09-04T17:17:30.207Z,100884.41
2022-09-04T17:20:01.225Z,100896.13
2022-09-04T17:29:03.445Z,100903.13
2022-09-04T17:29:07.539Z,100901.06
2022-09-04T17:29:14.171Z,100899.28
2022-09-04T17:31:23.155Z,100895.72
2022-09-04T17:40:03.562Z,100898.75
2022-09-04T17:40:53.292Z,100897.94
2022-09-04T17:41:31.264Z,100892.81
2022-09-04T17:42:32.398Z,100900.59
2022-09-04T17:45:11.108Z,100905.97
2022-09-04T17:47:42.848Z,100901.19
2022-09-04T17:50:16.412Z,100911.16
2022-09-04T17:53:01.885Z,100912.47
2022-09-04T17:55:30.648Z,100907.66
2022-09-04T17:58:04.709Z,100905.63
2022-09-04T18:00:36.879Z,100908.59
2022-09-04T18:03:12.809Z,100915.16
2022-09-04T18:05:48.636Z,100915.41
2022-09-04T18:08:26.567Z,100918.03
2022-09-04T18:11:03.160Z,100922.63
2022-09-04T18:13:38.717Z,100930.75
2022-09-04T18:16:17.788Z,100934.97
2022-09-04T18:18:55.888Z,100937.59
2022-09-04T18:21:26.613Z,100929.75
2022-09-04T18:24:07.782Z,100939.44
2022-09-04T18:26:55.114Z,100945.63
2022-09-04T18:29:56.886Z,100939.25
2022-09-04T18:37:09.009Z,100950.84
2022-09-04T18:37:20.594Z,100943.66
2022-09-04T18:38:14.301Z,100946.66
2022-09-04T18:45:30.928Z,100950.06
2022-09-04T18:50:20.951Z,100952.59
2022-09-04T18:50:38.073Z,100950.06
2022-09-04T18:50:39.644Z,100956.25
2022-09-04T18:52:20.383Z,100953.75
2022-09-04T18:54:50.986Z,100959.91
2022-09-04T18:57:40.433Z,100958.19
2022-09-04T19:00:09.746Z,100968.25
2022-09-04T19:02:52.804Z,100964.59
2022-09-04T19:05:21.009Z,100978.16
2022-09-04T19:07:47.580Z,100973.38
2022-09-04T19:10:21.444Z,100979.97
2022-09-04T19:12:50.785Z,100977.81
2022-09-04T19:15:23.521Z,100978.34
2022-09-04T19:18:23.435Z,100984.50
2022-09-04T19:20:52.722Z,100981.63
2022-09-04T19:23:28.355Z,100984.25
2022-09-04T19:26:00.092Z,100984.56
2022-09-04T19:28:52.577Z,100979.44
2022-09-04T19:31:49.287Z,100987.22
2022-09-04T19:34:15.911Z,100976.91
2022-09-04T19:36:43.856Z,100975.97
2022-09-04T19:46:00.355Z,100987.34
2022-09-04T19:46:00.739Z,100981.34
2022-09-04T19:46:16.322Z,100987.25
2022-09-04T19:48:23.820Z,100984.56
2022-09-04T19:53:30.915Z,100983.19
2022-09-04T19:54:03.182Z,100981.44
2022-09-04T19:56:29.834Z,100977.78
2022-09-04T19:59:12.234Z,100984.22
2022-09-04T20:01:42.999Z,100977.81
2022-09-04T20:04:18.547Z,100983.66
2022-09-04T20:06:50.794Z,100975.63
2022-09-04T20:09:30.809Z,100972.75
2022-09-04T20:12:08.987Z,100975.38
2022-09-04T20:14:46.439Z,100986.63
2022-09-04T20:17:22.446Z,100984.69
2022-09-04T20:19:56.221Z,100987.44
2022-09-04T20:22:28.737Z,100986.03
2022-09-04T20:25:15.554Z,100976.28
2022-09-04T20:27:46.054Z,100983.75
2022-09-04T20:30:24.900Z,100983.94
2022-09-04T20:32:57.792Z,100983.66
2022-09-04T20:35:32.856Z,100985.31
2022-09-04T20:38:12.370Z,100994.50
2022-09-04T20:40:44.700Z,100989.19
2022-09-04T20:43:19.357Z,100987.59
2022-09-04T20:50:20.044Z,100984.88
2022-09-04T20:52:48.762Z,100987.91
2022-09-04T20:52:49.560Z,100987.50
2022-09-04T20:54:57.315Z,100984.31
2022-09-04T21:01:55.069Z,100988.38
2022-09-04T21:03:07.336Z,100991.91
2022-09-04T21:03:27.923Z,100989.16
2022-09-04T21:05:54.257Z,100998.84
2022-09-04T21:08:27.261Z,100995.16
2022-09-04T21:10:59.648Z,100999.19
2022-09-04T21:13:41.040Z,100996.63
2022-09-04T21:16:25.989Z,100998.25
2022-09-04T21:19:27.472Z,101008.69
2022-09-04T21:22:00.560Z,101008.22
2022-09-04T21:24:27.131Z,101009.69
2022-09-04T21:26:59.837Z,101014.19
2022-09-04T21:29:29.545Z,101014.50
2022-09-04T21:32:07.152Z,101013.66
2022-09-04T21:34:43.961Z,101020.56
2022-09-04T21:37:30.931Z,101024.09
2022-09-04T21:39:58.549Z,101031.38
2022-09-04T21:42:25.336Z,101027.19
2022-09-04T21:45:00.809Z,101037.94
2022-09-04T21:47:28.080Z,101043.22
2022-09-04T21:50:15.774Z,101044.19
2022-09-04T21:53:10.774Z,101054.81
2022-09-04T21:59:42.519Z,101051.59
2022-09-04T22:02:28.230Z,101051.75
2022-09-04T22:02:39.554Z,101054.47
2022-09-04T22:04:30.861Z,101053.03
2022-09-04T22:09:52.175Z,101047.41
2022-09-04T22:13:27.261Z,101045.31
2022-09-04T22:13:43.194Z,101051.13
2022-09-04T22:15:29.260Z,101042.75
2022-09-04T22:18:04.858Z,101044.34
2022-09-04T22:20:33.158Z,101047.38
2022-09-04T22:23:28.257Z,101051.25
2022-09-04T22:26:14.873Z,101046.44
2022-09-04T22:28:54.749Z,101055.75
2022-09-04T22:31:22.647Z,101049.19
2022-09-04T22:34:15.174Z,101058.16
2022-09-04T22:37:09.135Z,101055.13
2022-09-04T22:39:35.700Z,101055.91
2022-09-04T22:42:21.448Z,101053.50
2022-09-04T22:45:20.143Z,101049.47
2022-09-04T22:47:59.030Z,101052.53
2022-09-04T22:50:50.344Z,101056.38
2022-09-04T22:53:32.569Z,101066.16
2022-09-04T22:56:23.011Z,101058.72
2022-09-04T22:58:52.306Z,101065.63
2022-09-04T23:01:22.467Z,101057.91
2022-09-04T23:04:04.669Z,101069.31
2022-09-04T23:11:26.999Z,101063.38
2022-09-04T23:13:47.725Z,101067.66
2022-09-04T23:13:49.987Z,101063.84
2022-09-04T23:15:54.353Z,101065.84
2022-09-04T23:20:00.659Z,101065.97
2022-09-04T23:26:33.435Z,101062.91
2022-09-04T23:26:58.314Z,101071.09
2022-09-04T23:27:29.416Z,101061.28
2022-09-04T23:29:59.380Z,101066.25
2022-09-04T23:32:26.370Z,101063.03
2022-09-04T23:34:57.740Z,101064.97
2022-09-04T23:37:39.774Z,101061.94
2022-09-04T23:40:12.227Z,101063.38
2022-09-04T23:42:51.062Z,101064.78
2022-09-04T23:45:36.745Z,101067.16
2022-09-04T23:48:15.208Z,101068.09
2022-09-04T23:50:45.191Z,101062.47
2022-09-04T23:53:20.380Z,101066.94
2022-09-04T23:55:56.164Z,101065.91
2022-09-04T23:58:51.572Z,101071.03
